Time;durP1;ratioP1;P1;durP2;ratioP2;P2;SDS_P1;SDS_P2;PMS_P1;PMS_P2;Temp;Humidity;BMP_temperature;BMP_pressure;BME280_temperature;BME280_humidity;BME280_pressure;Samples;Min_cycle;Max_cycle;Signal;HPM_P1;HPM_P2
2022/01/26 00:06:37;;;;;;;90.47;40.53;;;6.60;57.90;;;;;;5075329;28;20387;-79
2022/01/26 00:08:57;;;;;;;89.78;39.83;;;6.90;57.20;;;;;;5070982;28;20399;-79
2022/01/26 00:11:23;;;;;;;81.95;38.53;;;7.20;56.50;;;;;;5057046;28;20111;-79
2022/01/26 00:13:50;;;;;;;80.40;37.35;;;7.00;56.40;;;;;;5073295;28;20020;-79
2022/01/26 00:16:26;;;;;;;82.57;38.35;;;7.00;56.10;;;;;;5076785;28;20032;-83
2022/01/26 00:18:54;;;;;;;86.95;40.78;;;6.80;56.20;;;;;;5095549;28;20035;-79
2022/01/26 00:21:55;;;;;;;75.75;37.05;;;6.90;56.70;;;;;;5063464;28;20475;-79
2022/01/26 00:29:24;;;;;;;81.78;37.35;;;7.00;55.90;;;;;;5074696;28;20483;-79
2022/01/26 00:40:06;;;;;;;86.57;38.58;;;6.70;56.10;;;;;;5095485;28;20031;-79
2022/01/26 00:42:37;;;;;;;87.43;38.03;;;6.40;56.60;;;;;;5075759;28;20390;-78
2022/01/26 00:45:06;;;;;;;97.57;40.83;;;6.60;56.10;;;;;;5057351;28;20049;-79
2022/01/26 00:47:32;;;;;;;77.10;37.03;;;6.60;56.20;;;;;;5057398;28;20036;-79
2022/01/26 00:50:03;;;;;;;81.63;37.30;;;6.60;56.30;;;;;;5056807;28;20081;-79
2022/01/26 00:52:39;;;;;;;85.47;37.60;;;6.60;57.10;;;;;;5073791;28;20024;-79
2022/01/26 00:55:07;;;;;;;85.28;36.88;;;6.70;56.40;;;;;;5076820;28;20028;-79
2022/01/26 00:57:32;;;;;;;87.43;39.20;;;6.70;55.60;;;;;;5076145;28;20055;-79
2022/01/26 00:59:59;;;;;;;72.68;32.85;;;6.80;55.70;;;;;;5094855;28;20434;-80
2022/01/26 01:02:25;;;;;;;83.00;36.00;;;6.40;56.40;;;;;;5057321;28;20044;-79
2022/01/26 01:04:51;;;;;;;68.15;31.23;;;5.50;59.90;;;;;;5056498;28;20410;-79
2022/01/26 01:07:21;;;;;;;74.50;32.90;;;5.50;59.80;;;;;;5056874;28;20028;-80
2022/01/26 01:09:47;;;;;;;68.97;32.60;;;5.80;59.50;;;;;;5056601;28;20021;-79
2022/01/26 01:12:13;;;;;;;69.20;33.08;;;6.30;58.30;;;;;;5072760;28;20024;-79
2022/01/26 01:14:41;;;;;;;64.30;31.63;;;6.40;56.80;;;;;;5076807;28;20035;-79
2022/01/26 01:17:10;;;;;;;75.63;35.85;;;6.40;56.10;;;;;;5095089;28;20027;-80
2022/01/26 01:19:46;;;;;;;75.38;35.20;;;6.20;56.50;;;;;;5076766;28;20356;-80
2022/01/26 01:22:34;;;;;;;78.38;33.88;;;5.90;56.80;;;;;;5079042;28;20055;-80
2022/01/26 01:25:36;;;;;;;74.93;33.92;;;6.10;56.50;;;;;;5056537;28;20078;-81
2022/01/26 01:29:15;;;;;;;72.68;31.55;;;6.00;55.50;;;;;;5064263;27;1472119;-81
2022/01/26 01:34:12;;;;;;;72.45;34.53;;;6.10;56.60;;;;;;5112399;28;20024;-81
2022/01/26 01:36:40;;;;;;;90.40;36.80;;;6.00;56.40;;;;;;5094273;28;20123;-81
2022/01/26 01:39:09;;;;;;;90.28;38.70;;;5.80;57.70;;;;;;5094274;28;20073;-81
2022/01/26 01:41:38;;;;;;;82.13;34.92;;;5.90;56.90;;;;;;5098876;28;20032;-80
2022/01/26 01:44:05;;;;;;;65.13;32.05;;;6.00;56.70;;;;;;5092127;28;20020;-80
2022/01/26 01:46:31;;;;;;;73.88;33.92;;;5.80;56.40;;;;;;5075347;28;20063;-81
2022/01/26 01:48:57;;;;;;;80.32;34.40;;;5.70;57.40;;;;;;5091661;28;20060;-81
2022/01/26 01:51:32;;;;;;;74.85;34.47;;;5.80;58.10;;;;;;5096760;28;20033;-81
2022/01/26 01:53:58;;;;;;;72.45;32.33;;;5.90;57.90;;;;;;5091664;28;20024;-79
2022/01/26 01:56:26;;;;;;;76.78;33.25;;;5.80;58.20;;;;;;5091740;28;20013;-78
2022/01/26 01:58:58;;;;;;;73.55;34.55;;;6.00;57.80;;;;;;5073540;28;20021;-78
2022/01/26 02:01:25;;;;;;;63.22;30.58;;;6.10;57.60;;;;;;5087641;28;20039;-81
2022/01/26 02:03:51;;;;;;;69.75;31.25;;;5.80;57.50;;;;;;5093476;28;20027;-78
2022/01/26 02:06:18;;;;;;;66.05;30.80;;;5.70;58.00;;;;;;5093690;28;20042;-79
2022/01/26 02:08:44;;;;;;;70.10;33.17;;;5.90;57.10;;;;;;5093506;28;20032;-79
2022/01/26 02:11:12;;;;;;;73.13;33.35;;;6.00;57.20;;;;;;5110785;28;20035;-82
2022/01/26 02:13:51;;;;;;;87.72;36.78;;;6.00;57.20;;;;;;5093574;28;20055;-80
2022/01/26 02:16:29;;;;;;;71.50;33.88;;;6.20;57.30;;;;;;5111858;28;20355;-79
2022/01/26 02:19:41;;;;;;;70.72;33.65;;;6.60;56.00;;;;;;5093446;28;20111;-80
2022/01/26 03:02:09;;;;;;;78.18;36.72;;;5.90;55.80;;;;;;5097008;28;20016;-81
2022/01/26 03:04:59;;;;;;;83.53;36.38;;;5.40;56.70;;;;;;5086516;27;1377819;-84
2022/01/26 03:10:36;;;;;;;88.35;37.95;;;5.50;56.80;;;;;;5112723;28;20016;-80
2022/01/26 03:13:19;;;;;;;84.35;36.72;;;5.40;56.50;;;;;;5111188;28;20023;-82
2022/01/26 03:15:50;;;;;;;76.38;35.60;;;5.40;56.40;;;;;;5112681;28;20106;-80
2022/01/26 03:21:03;;;;;;;83.75;36.30;;;5.30;57.10;;;;;;5113098;28;20481;-83
2022/01/26 03:29:10;;;;;;;77.53;36.72;;;5.00;57.40;;;;;;5092358;28;20399;-80
2022/01/26 03:34:11;;;;;;;86.20;38.17;;;5.10;56.70;;;;;;5112538;28;20036;-81
2022/01/26 03:36:50;;;;;;;87.22;39.17;;;5.00;56.90;;;;;;5094087;28;20023;-80
2022/01/26 03:39:20;;;;;;;92.63;39.23;;;4.80;57.80;;;;;;5093774;28;20028;-81
2022/01/26 03:41:50;;;;;;;92.20;40.90;;;5.00;56.90;;;;;;5074604;28;20051;-82
2022/01/26 03:44:16;;;;;;;79.82;35.47;;;5.20;56.50;;;;;;5091608;28;20040;-82
2022/01/26 03:46:42;;;;;;;88.47;38.22;;;5.20;56.20;;;;;;5072943;28;20023;-83
2022/01/26 03:49:09;;;;;;;91.63;39.88;;;5.20;56.70;;;;;;5084415;28;20062;-82
2022/01/26 03:51:35;;;;;;;86.15;36.55;;;5.50;55.50;;;;;;5112053;28;20446;-81
2022/01/26 03:54:57;;;;;;;92.50;40.25;;;5.50;54.90;;;;;;5090036;27;1388410;-81
2022/01/26 03:57:23;;;;;;;90.00;39.33;;;5.50;55.50;;;;;;5094922;28;20032;-80
2022/01/26 03:59:48;;;;;;;95.97;41.28;;;5.30;55.60;;;;;;5111946;28;20094;-84
2022/01/26 04:02:14;;;;;;;85.40;40.00;;;5.30;56.20;;;;;;5113143;28;20035;-85
2022/01/26 04:04:47;;;;;;;90.43;39.97;;;5.10;55.50;;;;;;5094781;28;20031;-89
2022/01/26 04:07:13;;;;;;;91.40;42.17;;;5.10;55.40;;;;;;5095135;28;20028;-87
2022/01/26 04:09:38;;;;;;;94.15;43.03;;;4.60;57.30;;;;;;5080709;28;20029;-81
2022/01/26 04:12:04;;;;;;;97.85;42.05;;;4.80;56.90;;;;;;5108088;28;20479;-84
2022/01/26 04:14:33;;;;;;;100.43;42.03;;;5.10;56.40;;;;;;5091756;28;20070;-89
2022/01/26 04:16:59;;;;;;;91.63;42.83;;;5.20;56.30;;;;;;5074681;28;20020;-92
2022/01/26 04:19:27;;;;;;;95.78;42.40;;;4.90;56.50;;;;;;5087261;28;20470;-93
2022/01/26 04:22:03;;;;;;;85.20;39.28;;;5.00;56.60;;;;;;5093986;28;20024;-80
2022/01/26 04:29:26;;;;;;;92.95;40.90;;;4.30;59.50;;;;;;5092256;28;20035;-93
2022/01/26 04:31:53;;;;;;;95.65;42.83;;;4.00;59.90;;;;;;5082712;28;20463;-80
2022/01/26 04:34:19;;;;;;;86.88;39.40;;;4.10;58.40;;;;;;5084055;28;20032;-83
2022/01/26 04:36:56;;;;;;;88.53;39.95;;;4.50;57.60;;;;;;5096238;28;20043;-86
2022/01/26 04:43:23;;;;;;;87.13;38.30;;;4.40;56.70;;;;;;5113338;28;20036;-83
2022/01/26 04:45:49;;;;;;;89.90;40.63;;;4.60;56.50;;;;;;5094971;28;20393;-82
2022/01/26 04:48:14;;;;;;;103.80;41.78;;;4.40;56.80;;;;;;5096249;28;20030;-86
2022/01/26 04:50:40;;;;;;;96.10;42.00;;;4.40;57.70;;;;;;5115754;28;20114;-87
2022/01/26 04:53:06;;;;;;;90.40;41.13;;;4.40;57.50;;;;;;5116573;28;20028;-90
2022/01/26 04:55:31;;;;;;;90.43;41.70;;;4.70;56.80;;;;;;5097409;28;20096;-88
2022/01/26 04:57:57;;;;;;;81.95;39.65;;;5.20;55.80;;;;;;5097204;28;20127;-91
2022/01/26 05:00:22;;;;;;;99.78;43.75;;;5.20;55.00;;;;;;5094352;28;20031;-84
2022/01/26 05:02:48;;;;;;;95.97;44.50;;;5.30;55.00;;;;;;5093779;28;20114;-90
2022/01/26 05:05:14;;;;;;;92.45;40.13;;;5.40;54.40;;;;;;5092733;28;20028;-81
2022/01/26 05:07:40;;;;;;;100.30;42.83;;;5.60;53.90;;;;;;5092586;28;20399;-86
2022/01/26 05:10:05;;;;;;;90.28;41.03;;;5.20;54.60;;;;;;5092586;28;20054;-82
2022/01/26 05:12:33;;;;;;;88.97;39.95;;;5.40;54.00;;;;;;5093147;28;20047;-85
2022/01/26 05:14:59;;;;;;;90.95;42.00;;;4.80;54.50;;;;;;5093080;28;20024;-87
2022/01/26 05:17:24;;;;;;;80.60;37.47;;;4.70;55.20;;;;;;5083193;28;20021;-81
2022/01/26 05:19:55;;;;;;;100.53;42.53;;;4.60;55.50;;;;;;5091437;28;20032;-86
2022/01/26 05:22:23;;;;;;;89.18;40.85;;;4.70;55.60;;;;;;5092450;28;20021;-92
2022/01/26 05:24:48;;;;;;;93.00;41.75;;;4.70;55.80;;;;;;5084069;28;20034;-90
2022/01/26 05:27:14;;;;;;;103.32;43.42;;;4.90;55.70;;;;;;5111379;28;20378;-84
2022/01/26 05:29:40;;;;;;;88.35;38.97;;;4.90;55.80;;;;;;5082279;28;20170;-90
2022/01/26 05:32:06;;;;;;;97.07;41.03;;;4.50;56.00;;;;;;5095667;28;20023;-88
2022/01/26 05:34:32;;;;;;;104.60;44.55;;;4.30;57.20;;;;;;5102576;28;20013;-88
2022/01/26 05:36:58;;;;;;;96.70;41.67;;;4.60;56.30;;;;;;5095633;28;20424;-92
2022/01/26 05:39:24;;;;;;;102.10;40.53;;;4.80;55.80;;;;;;5084125;28;20036;-83
2022/01/26 05:41:50;;;;;;;101.10;42.17;;;4.70;55.30;;;;;;5079627;28;20036;-91
2022/01/26 05:44:15;;;;;;;119.28;46.33;;;4.50;55.50;;;;;;5085083;28;20039;-89
2022/01/26 05:46:46;;;;;;;105.18;43.15;;;4.00;57.30;;;;;;5077918;28;20020;-90
2022/01/26 05:49:12;;;;;;;93.68;42.20;;;4.00;56.90;;;;;;5091296;28;20125;-85
2022/01/26 05:51:38;;;;;;;101.60;41.08;;;3.70;57.70;;;;;;5072121;28;20031;-83
2022/01/26 05:54:05;;;;;;;107.70;43.45;;;3.40;58.70;;;;;;5075795;28;20111;-89
2022/01/26 05:56:31;;;;;;;94.68;43.75;;;3.60;58.80;;;;;;5074024;28;20020;-92
2022/01/26 05:58:58;;;;;;;98.53;42.80;;;4.10;57.70;;;;;;5061060;28;20059;-93
2022/01/26 06:03:41;;;;;;;92.78;39.67;;;4.10;57.50;;;;;;5076447;27;1348829;-83
2022/01/26 06:06:08;;;;;;;95.70;40.30;;;3.70;57.80;;;;;;5075780;28;20032;-91
2022/01/26 06:08:34;;;;;;;100.65;42.10;;;3.30;59.30;;;;;;5083410;28;20081;-83
2022/01/26 06:11:01;;;;;;;98.03;43.63;;;3.30;58.60;;;;;;5094971;28;20023;-85
2022/01/26 06:13:27;;;;;;;111.53;46.40;;;3.70;58.20;;;;;;5105348;28;20045;-88
2022/01/26 06:15:53;;;;;;;95.28;43.25;;;3.80;58.40;;;;;;5080000;28;20104;-87
2022/01/26 06:18:19;;;;;;;94.93;40.35;;;4.20;57.20;;;;;;5091031;28;20040;-86
2022/01/26 06:20:45;;;;;;;92.07;39.78;;;4.50;56.10;;;;;;5092109;28;20021;-90
2022/01/26 06:23:11;;;;;;;106.90;43.28;;;4.10;56.20;;;;;;5092572;28;20036;-84
2022/01/26 06:25:37;;;;;;;93.20;42.05;;;3.50;57.70;;;;;;5091663;28;20493;-88
2022/01/26 06:28:08;;;;;;;105.03;43.35;;;3.60;58.80;;;;;;5092992;28;20038;-92
2022/01/26 06:30:34;;;;;;;101.90;42.92;;;3.80;58.00;;;;;;5092287;28;20025;-92
2022/01/26 06:33:00;;;;;;;101.72;42.35;;;4.40;57.40;;;;;;5103925;28;20031;-90
2022/01/26 06:35:27;;;;;;;99.93;40.90;;;4.70;56.50;;;;;;5113626;28;20059;-83
2022/01/26 06:38:56;;;;;;;110.68;46.22;;;4.30;57.00;;;;;;5046653;28;20403;-90
2022/01/26 06:41:24;;;;;;;94.95;43.00;;;3.90;58.20;;;;;;5016025;28;20029;-91
2022/01/26 06:43:57;;;;;;;95.55;40.75;;;3.70;59.20;;;;;;5013934;28;20034;-84
2022/01/26 06:46:31;;;;;;;111.85;44.80;;;4.00;59.20;;;;;;5013312;28;20045;-92
2022/01/26 06:51:25;;;;;;;95.63;41.08;;;4.70;57.60;;;;;;5015543;28;20484;-83
2022/01/26 06:53:51;;;;;;;96.82;39.35;;;4.70;57.50;;;;;;5012546;28;20061;-85
2022/01/26 06:56:16;;;;;;;88.07;39.05;;;4.60;57.50;;;;;;5011407;28;20033;-85
2022/01/26 06:58:42;;;;;;;90.13;40.70;;;4.30;59.10;;;;;;5012156;28;20061;-91
2022/01/26 07:01:08;;;;;;;93.47;41.42;;;4.20;59.40;;;;;;5011231;28;20053;-87
2022/01/26 07:25:50;;;;;;;38.63;18.70;;;7.00;63.50;;;;;;6043041;22;20055;-90
2022/01/26 07:28:16;;;;;;;40.05;20.70;;;7.60;63.00;;;;;;5052596;28;20120;-87
2022/01/26 07:30:42;;;;;;;38.78;19.73;;;8.00;61.60;;;;;;5034633;28;20025;-84
2022/01/26 07:33:37;;;;;;;38.38;19.35;;;8.40;61.30;;;;;;5034663;28;20496;-83
2022/01/26 07:36:03;;;;;;;33.97;18.42;;;8.70;60.30;;;;;;5034298;28;20087;-81
2022/01/26 07:38:30;;;;;;;33.20;17.98;;;8.80;60.40;;;;;;5051966;28;20063;-80
2022/01/26 07:40:56;;;;;;;31.70;17.15;;;9.60;59.20;;;;;;5033232;28;20041;-79
2022/01/26 07:43:22;;;;;;;34.47;18.50;;;9.70;58.50;;;;;;5033899;28;20028;-79
2022/01/26 07:45:48;;;;;;;32.20;17.15;;;10.00;58.00;;;;;;5034376;28;20121;-85
2022/01/26 07:48:13;;;;;;;33.38;18.70;;;10.10;57.90;;;;;;5034054;28;20053;-84
2022/01/26 07:50:39;;;;;;;34.38;18.40;;;9.90;58.00;;;;;;5033971;28;20100;-87
2022/01/26 07:53:05;;;;;;;34.75;18.88;;;10.00;57.80;;;;;;5034112;28;20048;-78
2022/01/26 07:55:31;;;;;;;31.95;17.52;;;9.90;57.70;;;;;;5033545;28;20063;-80
2022/01/26 07:57:59;;;;;;;33.05;18.90;;;9.80;58.10;;;;;;5033756;28;20116;-89
2022/01/26 08:00:25;;;;;;;29.50;17.25;;;9.50;58.90;;;;;;5033205;28;20022;-81
2022/01/26 08:02:51;;;;;;;29.73;16.45;;;9.30;59.20;;;;;;5033772;28;20079;-90
2022/01/26 08:05:17;;;;;;;29.48;16.35;;;9.00;60.30;;;;;;5033659;28;20028;-90
2022/01/26 08:07:43;;;;;;;32.78;16.70;;;9.00;60.20;;;;;;5034168;28;20025;-80
2022/01/26 08:10:10;;;;;;;28.65;15.73;;;9.20;59.70;;;;;;5033126;28;20025;-79
2022/01/26 08:12:37;;;;;;;28.30;15.85;;;9.30;59.30;;;;;;5033405;28;20017;-79
2022/01/26 08:15:04;;;;;;;27.30;15.15;;;9.80;59.00;;;;;;5033312;28;20075;-79
2022/01/26 08:17:30;;;;;;;30.23;16.65;;;9.90;58.20;;;;;;5051315;28;20466;-77
2022/01/26 08:19:56;;;;;;;29.83;16.83;;;9.50;58.90;;;;;;5032875;28;20032;-78
2022/01/26 08:22:25;;;;;;;29.33;15.68;;;9.30;59.50;;;;;;5033239;28;20029;-80
2022/01/26 08:24:50;;;;;;;28.83;15.75;;;9.20;59.80;;;;;;5032988;28;20115;-92
2022/01/26 08:27:19;;;;;;;28.05;15.65;;;9.30;59.60;;;;;;5032810;28;20199;-80
2022/01/26 08:29:55;;;;;;;28.60;15.70;;;9.60;59.10;;;;;;5032945;28;20017;-81
2022/01/26 08:32:21;;;;;;;29.83;15.80;;;9.10;59.80;;;;;;5030528;28;20461;-89
2022/01/26 08:34:47;;;;;;;29.15;17.33;;;9.20;59.90;;;;;;5037827;28;20029;-80
2022/01/26 08:37:12;;;;;;;37.45;19.33;;;9.20;60.00;;;;;;5019491;28;20036;-81
2022/01/26 08:39:38;;;;;;;28.15;15.90;;;9.30;59.30;;;;;;5019237;28;20025;-91
2022/01/26 08:42:06;;;;;;;28.15;16.77;;;9.30;59.80;;;;;;5037639;28;20037;-79
2022/01/26 08:44:32;;;;;;;39.20;20.55;;;9.30;59.70;;;;;;5019633;28;20021;-79
2022/01/26 08:46:58;;;;;;;40.95;20.40;;;9.20;59.80;;;;;;5019457;28;20095;-80
2022/01/26 08:49:27;;;;;;;41.75;22.45;;;9.10;60.30;;;;;;5019043;28;20487;-82
2022/01/26 08:51:54;;;;;;;42.63;23.33;;;9.10;60.60;;;;;;5036953;28;20053;-77
2022/01/26 08:54:22;;;;;;;30.75;16.95;;;9.70;59.40;;;;;;5037125;28;20093;-78
2022/01/26 08:56:51;;;;;;;37.03;19.92;;;9.70;58.80;;;;;;5018899;28;20053;-79
2022/01/26 08:59:19;;;;;;;29.02;16.00;;;9.10;60.20;;;;;;5013480;28;20018;-81
2022/01/26 09:01:45;;;;;;;25.23;14.20;;;9.20;60.20;;;;;;5036971;28;20044;-80
2022/01/26 09:04:12;;;;;;;25.08;14.25;;;9.00;60.40;;;;;;5036781;28;20013;-79
2022/01/26 09:06:51;;;;;;;26.45;14.52;;;8.90;60.80;;;;;;5018881;28;20100;-80
2022/01/26 09:09:22;;;;;;;25.80;14.13;;;8.90;61.00;;;;;;5019023;28;20021;-78
2022/01/26 09:11:49;;;;;;;23.73;14.38;;;9.10;60.90;;;;;;5036225;28;20044;-80
2022/01/26 09:14:21;;;;;;;24.73;14.20;;;9.20;60.00;;;;;;5018816;28;20024;-79
2022/01/26 09:16:51;;;;;;;23.52;14.43;;;8.60;61.70;;;;;;5036157;28;20021;-79
2022/01/26 09:19:26;;;;;;;22.70;12.52;;;8.90;61.70;;;;;;5019265;28;20124;-78
2022/01/26 09:21:53;;;;;;;23.33;13.55;;;8.40;61.70;;;;;;5037136;28;20037;-93
2022/01/26 09:24:19;;;;;;;27.02;14.82;;;8.60;62.10;;;;;;5019339;28;20415;-78
2022/01/26 09:26:45;;;;;;;22.38;13.50;;;8.90;61.00;;;;;;5036598;28;20464;-80
2022/01/26 09:29:10;;;;;;;19.65;12.60;;;9.40;60.20;;;;;;5036646;28;20017;-79
2022/01/26 09:31:36;;;;;;;23.50;13.90;;;10.00;59.40;;;;;;5036397;28;20032;-79
2022/01/26 09:34:02;;;;;;;30.42;18.38;;;10.50;58.40;;;;;;5018649;28;20021;-80
2022/01/26 09:36:28;;;;;;;24.70;13.98;;;10.20;58.00;;;;;;5036265;28;20056;-80
2022/01/26 09:38:54;;;;;;;25.42;14.25;;;10.50;58.40;;;;;;5017850;28;20021;-77
2022/01/26 09:41:20;;;;;;;26.38;14.70;;;11.80;55.60;;;;;;5035961;28;20033;-79
2022/01/26 09:43:46;;;;;;;24.80;14.45;;;12.60;53.90;;;;;;5035246;28;20100;-86
2022/01/26 09:46:13;;;;;;;22.48;14.00;;;12.50;53.50;;;;;;5017901;28;20449;-79
2022/01/26 09:48:39;;;;;;;27.20;15.60;;;12.70;52.80;;;;;;5017905;28;20372;-79
2022/01/26 10:02:03;;;;;;;20.48;13.27;;;11.70;53.70;;;;;;5113561;27;20392;-87
2022/01/26 10:04:36;;;;;;;22.25;13.85;;;11.50;54.90;;;;;;5112206;28;20027;-92
2022/01/26 10:07:55;;;;;;;22.20;13.35;;;11.40;55.80;;;;;;5116991;28;20028;-93
2022/01/26 10:15:35;;;;;;;23.75;14.07;;;12.50;53.90;;;;;;5114961;28;20031;-86
2022/01/26 10:18:10;;;;;;;21.08;12.68;;;13.10;52.60;;;;;;5114795;28;20032;-82
2022/01/26 10:20:50;;;;;;;21.70;12.35;;;13.00;52.30;;;;;;5114505;28;20376;-86
2022/01/26 10:23:22;;;;;;;20.88;12.63;;;13.00;52.60;;;;;;5111351;28;20031;-79
2022/01/26 10:26:06;;;;;;;21.90;12.30;;;13.40;51.90;;;;;;5110557;28;20024;-80
2022/01/26 10:28:53;;;;;;;21.02;11.52;;;13.40;51.60;;;;;;5110596;28;20032;-80
2022/01/26 10:31:26;;;;;;;23.10;13.30;;;13.90;50.90;;;;;;5111631;28;20383;-80
2022/01/26 10:34:00;;;;;;;18.92;12.07;;;14.10;51.30;;;;;;5110153;28;20027;-80
2022/01/26 10:36:41;;;;;;;19.00;11.90;;;14.70;49.60;;;;;;5110482;28;20023;-81
2022/01/26 10:39:21;;;;;;;17.15;10.70;;;15.10;49.60;;;;;;5111975;28;20398;-80
2022/01/26 10:41:49;;;;;;;18.27;12.13;;;16.00;48.10;;;;;;5111810;28;20376;-81
2022/01/26 10:44:17;;;;;;;16.73;10.82;;;16.40;47.50;;;;;;5110169;28;20500;-80
2022/01/26 10:46:47;;;;;;;18.90;11.70;;;16.90;46.50;;;;;;5110801;28;20073;-82
2022/01/26 10:49:18;;;;;;;;;;;17.20;45.90;;;;;;5110799;28;20032;-80
2022/01/26 10:54:22;;;;;;;16.98;10.60;;;18.40;44.10;;;;;;5112748;28;20110;-83
2022/01/26 10:56:50;;;;;;;17.55;11.05;;;17.50;44.80;;;;;;5111629;28;20044;-85
2022/01/26 10:59:16;;;;;;;16.88;11.40;;;16.10;46.60;;;;;;5110118;28;20087;-80
2022/01/26 11:01:42;;;;;;;17.65;11.57;;;15.70;47.40;;;;;;5102940;28;20052;-80
2022/01/26 11:04:09;;;;;;;19.20;12.77;;;15.10;48.20;;;;;;5095900;28;20161;-80
2022/01/26 11:06:37;;;;;;;21.67;14.30;;;14.30;49.00;;;;;;5096173;28;20027;-79
2022/01/26 11:09:10;;;;;;;15.50;10.50;;;13.80;50.50;;;;;;5097422;28;20039;-80
2022/01/26 11:11:36;;;;;;;19.98;12.73;;;12.90;51.00;;;;;;5096639;28;20061;-79
2022/01/26 11:14:16;;;;;;;16.63;10.35;;;12.40;52.50;;;;;;5096579;28;20028;-81
2022/01/26 11:17:00;;;;;;;18.58;11.20;;;12.10;53.20;;;;;;5096229;28;20111;-79
2022/01/26 11:19:26;;;;;;;22.35;14.45;;;12.00;53.60;;;;;;5096655;28;20404;-80
2022/01/26 11:21:52;;;;;;;25.83;15.35;;;11.70;54.10;;;;;;5096472;28;20511;-79
2022/01/26 11:24:20;;;;;;;25.02;16.20;;;11.60;54.10;;;;;;5095352;28;20483;-79
2022/01/26 11:26:48;;;;;;;18.88;11.45;;;12.00;53.80;;;;;;5097431;28;20032;-79
2022/01/26 11:29:31;;;;;;;16.58;10.45;;;11.80;53.60;;;;;;5095798;28;20493;-79
2022/01/26 11:32:39;;;;;;;20.35;12.90;;;11.80;54.10;;;;;;5096026;28;20127;-80
2022/01/26 11:35:08;;;;;;;17.55;10.23;;;12.20;53.70;;;;;;5096728;28;20032;-79
2022/01/26 11:37:48;;;;;;;16.27;9.68;;;11.70;53.80;;;;;;5095644;28;20020;-90
2022/01/26 11:46:07;;;;;;;16.33;10.00;;;10.80;56.10;;;;;;5097240;28;20031;-79
2022/01/26 11:48:33;;;;;;;19.58;11.32;;;11.00;55.60;;;;;;5096580;28;20051;-79
2022/01/26 11:51:01;;;;;;;17.17;9.88;;;11.30;55.40;;;;;;4389473;28;10000749;-81
2022/01/26 11:53:28;;;;;;;18.80;10.95;;;11.30;54.80;;;;;;5072675;28;20380;-79
2022/01/26 11:56:06;;;;;;;18.30;10.88;;;11.10;55.40;;;;;;5076837;28;20100;-79
2022/01/26 11:58:39;;;;;;;16.98;9.95;;;11.60;54.40;;;;;;5074770;28;20086;-81
2022/01/26 12:03:56;;;;;;;16.02;10.38;;;12.00;53.50;;;;;;5076605;28;20037;-79
2022/01/26 12:06:41;;;;;;;15.88;10.00;;;10.90;55.30;;;;;;5074636;28;20027;-79
2022/01/26 12:09:08;;;;;;;20.63;12.65;;;10.80;56.00;;;;;;5075422;28;20028;-79
2022/01/26 12:11:34;;;;;;;16.42;10.40;;;10.90;55.80;;;;;;5074281;28;20028;-79
2022/01/26 12:14:12;;;;;;;14.32;8.18;;;10.80;55.50;;;;;;5075255;28;20036;-93
2022/01/26 12:16:42;;;;;;;14.60;9.00;;;10.30;56.60;;;;;;5073876;28;20020;-79
2022/01/26 12:36:16;;;;;;;16.20;10.05;;;10.70;56.00;;;;;;5075320;28;20024;-79
2022/01/26 12:38:49;;;;;;;16.45;9.50;;;10.60;56.10;;;;;;5013577;28;20036;-79
2022/01/26 12:41:31;;;;;;;14.60;9.00;;;10.20;56.50;;;;;;5013649;28;20486;-79
2022/01/26 12:44:07;;;;;;;32.80;16.58;;;9.90;57.50;;;;;;5014146;28;20030;-79
2022/01/26 12:46:37;;;;;;;16.15;9.85;;;9.80;57.30;;;;;;5013683;28;20089;-79
2022/01/26 12:49:10;;;;;;;14.88;8.77;;;9.40;58.00;;;;;;4998295;28;20500;-82
2022/01/26 12:51:47;;;;;;;17.45;8.73;;;9.20;58.90;;;;;;4996817;28;20037;-79
2022/01/26 12:54:14;;;;;;;19.08;10.57;;;9.50;58.70;;;;;;4997133;28;20029;-79
2022/01/26 12:56:39;;;;;;;16.50;9.30;;;9.90;57.70;;;;;;5013056;28;20513;-79
2022/01/26 12:59:12;;;;;;;17.95;11.43;;;9.90;57.30;;;;;;4996932;28;20033;-78
2022/01/26 13:01:39;;;;;;;16.75;9.13;;;10.40;56.70;;;;;;4996632;28;20046;-79
2022/01/26 13:04:07;;;;;;;14.20;8.07;;;10.50;56.20;;;;;;4996719;28;20034;-79
2022/01/26 13:06:37;;;;;;;18.65;10.82;;;10.70;55.70;;;;;;4996926;28;20030;-80
2022/01/26 13:09:18;;;;;;;24.23;12.60;;;10.90;55.60;;;;;;4996505;28;20028;-81
2022/01/26 13:11:46;;;;;;;17.52;10.10;;;10.90;55.50;;;;;;5014121;28;20127;-79
2022/01/26 13:14:28;;;;;;;17.63;10.00;;;10.80;55.00;;;;;;5073458;28;20396;-79
2022/01/26 13:31:05;;;;;;;18.33;10.27;;;10.30;56.50;;;;;;5075654;28;20032;-79
2022/01/26 13:54:25;;;;;;;16.00;9.07;;;10.40;56.20;;;;;;5074232;28;20048;-79
2022/01/26 14:01:46;;;;;;;16.75;9.60;;;10.10;56.90;;;;;;5074189;28;20480;-79
2022/01/26 14:04:15;;;;;;;17.33;8.82;;;10.20;56.70;;;;;;5073270;28;20037;-78
2022/01/26 14:06:41;;;;;;;16.27;9.13;;;10.40;56.00;;;;;;5073115;28;20024;-81
2022/01/26 14:09:06;;;;;;;15.65;8.75;;;10.10;56.20;;;;;;5073357;28;20115;-79
2022/01/26 14:11:32;;;;;;;16.63;9.93;;;10.20;56.60;;;;;;5074424;28;20534;-82
2022/01/26 14:13:59;;;;;;;14.65;8.85;;;10.30;56.10;;;;;;5073653;28;20032;-79
2022/01/26 14:16:27;;;;;;;16.80;9.77;;;10.20;56.10;;;;;;5073873;28;20500;-78
2022/01/26 14:26:26;;;;;;;18.02;9.90;;;10.20;56.30;;;;;;5073746;28;20233;-79
2022/01/26 14:28:51;;;;;;;18.42;9.00;;;10.00;56.40;;;;;;5074656;28;20028;-79
2022/01/26 15:08:51;;;;;;;45.42;26.65;;;9.70;56.80;;;;;;4976920;28;20058;-81
2022/01/26 15:30:27;;;;;;;36.22;19.77;;;8.70;59.10;;;;;;5077923;28;20096;-81
2022/01/26 15:53:24;;;;;;;23.98;12.68;;;9.00;58.40;;;;;;5112697;28;20027;-79
2022/01/26 15:59:02;;;;;;;21.77;11.27;;;9.40;57.50;;;;;;5112470;28;20389;-80
2022/01/26 16:07:02;;;;;;;23.75;11.27;;;8.90;58.20;;;;;;5092623;28;20073;-78
2022/01/26 16:19:09;;;;;;;69.57;49.80;;;8.90;58.80;;;;;;5029409;28;20060;-79
2022/01/26 16:21:26;;;;;;;95.07;76.03;;;8.80;59.00;;;;;;5029153;28;20053;-79
2022/01/26 16:54:08;;;;;;;28.70;17.02;;;9.40;57.80;;;;;;4951323;29;20122;-80
2022/01/26 17:46:59;;;;;;;77.57;33.10;;;7.30;63.40;;;;;;5091367;28;20042;-82
2022/01/26 17:55:20;;;;;;;73.45;45.35;;;7.50;62.80;;;;;;5098210;28;20027;-92
2022/01/26 18:16:38;;;;;;;33.17;17.50;;;7.60;62.00;;;;;;5049372;28;20032;-92
2022/01/26 18:50:07;;;;;;;136.00;76.47;;;7.40;61.20;;;;;;5086514;27;1409472;-80
2022/01/26 18:52:33;;;;;;;47.58;24.05;;;7.40;62.40;;;;;;5089511;28;20024;-79
2022/01/26 18:54:59;;;;;;;32.33;16.55;;;7.40;62.30;;;;;;5102662;28;20085;-81
2022/01/26 18:57:25;;;;;;;32.83;16.80;;;7.50;61.70;;;;;;5111009;28;20465;-81
2022/01/26 18:59:51;;;;;;;40.35;19.17;;;7.40;62.10;;;;;;5093686;28;20020;-93
2022/01/26 19:02:17;;;;;;;40.10;22.73;;;7.20;62.60;;;;;;5092437;28;20610;-79
2022/01/26 19:04:46;;;;;;;51.75;28.23;;;7.40;62.50;;;;;;5093282;28;20058;-82
2022/01/26 19:07:12;;;;;;;45.53;25.25;;;7.60;62.00;;;;;;5099878;28;20046;-78
2022/01/26 19:09:45;;;;;;;38.03;21.13;;;7.30;62.70;;;;;;5090543;28;20525;-92
2022/01/26 19:12:13;;;;;;;45.35;20.70;;;7.10;62.40;;;;;;5072068;28;20043;-83
2022/01/26 19:14:42;;;;;;;38.90;21.08;;;7.10;62.90;;;;;;5071674;28;20063;-82
2022/01/26 19:22:28;;;;;;;639.42;300.75;;;6.80;63.60;;;;;;5110810;28;20032;-79
2022/01/26 19:50:54;;;;;;;492.75;216.05;;;7.10;62.90;;;;;;5033007;28;20053;-88
2022/01/26 19:53:20;;;;;;;582.40;271.38;;;7.40;62.00;;;;;;5016810;28;20056;-94
2022/01/26 19:55:46;;;;;;;444.23;202.88;;;7.30;62.30;;;;;;5000576;28;20025;-78
2022/01/26 19:58:12;;;;;;;612.45;300.05;;;7.50;61.20;;;;;;5033167;28;20033;-91
2022/01/26 20:00:43;;;;;;;144.00;62.00;;;7.20;61.70;;;;;;5008116;28;20026;-86
2022/01/26 20:03:14;;;;;;;392.23;177.43;;;7.10;62.30;;;;;;5000169;28;20053;-89
2022/01/26 20:05:42;;;;;;;148.55;65.05;;;6.90;62.60;;;;;;5000948;28;20511;-93
2022/01/26 20:08:21;;;;;;;179.77;84.68;;;6.90;63.40;;;;;;5002382;28;20034;-90
2022/01/26 20:10:54;;;;;;;290.63;135.13;;;6.70;63.30;;;;;;5005337;28;20029;-90
2022/01/26 20:13:27;;;;;;;82.40;41.78;;;7.00;63.00;;;;;;4997780;28;20527;-80
2022/01/26 20:15:53;;;;;;;62.88;29.48;;;6.80;63.50;;;;;;5013562;28;20029;-82
2022/01/26 20:18:20;;;;;;;132.00;67.40;;;6.80;63.20;;;;;;5013061;28;20046;-78
2022/01/26 20:20:48;;;;;;;78.03;36.47;;;6.90;63.20;;;;;;4996222;28;20030;-80
2022/01/26 20:23:15;;;;;;;161.63;81.03;;;7.00;63.10;;;;;;5013875;28;20130;-80
2022/01/26 20:25:43;;;;;;;51.50;27.42;;;7.30;62.50;;;;;;5047721;28;20032;-86
2022/01/26 20:28:11;;;;;;;108.35;54.92;;;7.60;61.20;;;;;;5093651;28;20039;-80
2022/01/26 20:30:42;;;;;;;59.13;31.27;;;7.80;60.20;;;;;;5075121;28;20032;-93
2022/01/26 20:33:08;;;;;;;190.93;102.18;;;7.70;60.40;;;;;;5075062;28;20070;-81